createdAt,value
2023-05-04T00:00:49.902Z,99.90
2023-05-04T00:03:18.221Z,99.90
2023-05-04T00:05:47.706Z,99.90
2023-05-04T00:08:15.805Z,99.90
2023-05-04T00:10:46.200Z,99.90
2023-05-04T00:13:14.449Z,99.90
2023-05-04T00:15:42.591Z,99.90
2023-05-04T00:18:10.605Z,99.90
2023-05-04T00:20:39.182Z,99.90
2023-05-04T00:23:14.658Z,99.90
2023-05-04T00:25:42.767Z,99.90
2023-05-04T00:28:10.774Z,99.90
2023-05-04T00:30:38.853Z,99.90
2023-05-04T00:33:06.929Z,99.90
2023-05-04T00:35:35.273Z,99.90
2023-05-04T00:38:04.821Z,99.90
2023-05-04T00:40:35.241Z,99.90
2023-05-04T00:43:03.731Z,99.90
2023-05-04T00:45:32.536Z,99.90
2023-05-04T00:48:00.897Z,99.90
2023-05-04T00:50:31.940Z,99.90
2023-05-04T00:53:02.628Z,99.90
2023-05-04T00:55:30.772Z,99.90
2023-05-04T00:58:00.512Z,99.90
2023-05-04T01:00:28.630Z,99.90
2023-05-04T01:02:57.616Z,99.90
2023-05-04T01:05:28.328Z,99.90
2023-05-04T01:08:00.240Z,99.90
2023-05-04T01:10:35.705Z,99.90
2023-05-04T01:13:08.535Z,99.90
2023-05-04T01:15:36.791Z,99.90
2023-05-04T01:18:05.773Z,99.90
2023-05-04T01:20:34.119Z,99.90
2023-05-04T01:23:05.846Z,99.90
2023-05-04T01:25:40.316Z,99.90
2023-05-04T01:28:11.396Z,99.90
2023-05-04T01:30:44.563Z,99.90
2023-05-04T01:33:13.373Z,99.90
2023-05-04T01:35:41.470Z,99.90
2023-05-04T01:38:11.138Z,99.90
2023-05-04T01:40:39.080Z,99.90
2023-05-04T01:43:07.090Z,99.90
2023-05-04T01:45:35.173Z,99.90
2023-05-04T01:48:06.905Z,99.90
2023-05-04T01:50:35.199Z,99.90
2023-05-04T01:53:05.523Z,99.90
2023-05-04T01:55:34.953Z,99.90
2023-05-04T01:58:04.988Z,99.90
2023-05-04T02:00:33.529Z,99.90
2023-05-04T02:03:02.194Z,99.90
2023-05-04T02:05:30.349Z,99.90
2023-05-04T02:07:58.495Z,99.90
2023-05-04T02:10:26.719Z,99.90
2023-05-04T02:12:56.313Z,99.90
2023-05-04T02:15:24.549Z,99.90
2023-05-04T02:17:52.575Z,99.90
2023-05-04T02:20:20.786Z,99.90
2023-05-04T02:22:48.851Z,99.90
2023-05-04T02:25:19.432Z,99.90
2023-05-04T02:27:47.638Z,99.90
2023-05-04T02:30:19.792Z,99.90
2023-05-04T02:32:47.839Z,99.90
2023-05-04T02:35:15.981Z,99.90
2023-05-04T02:37:44.113Z,99.90
2023-05-04T02:40:13.649Z,99.90
2023-05-04T02:42:41.585Z,99.90
2023-05-04T02:45:10.448Z,99.90
2023-05-04T02:47:39.832Z,99.90
2023-05-04T02:50:11.138Z,99.90
2023-05-04T02:52:40.449Z,99.90
2023-05-04T02:55:09.321Z,99.90
2023-05-04T02:57:37.447Z,99.90
2023-05-04T03:00:09.027Z,99.90
2023-05-04T03:02:40.147Z,99.90
2023-05-04T03:05:08.327Z,99.90
2023-05-04T03:07:36.353Z,99.90
2023-05-04T03:10:07.213Z,99.90
2023-05-04T03:12:35.626Z,99.90
2023-05-04T03:15:05.450Z,99.90
2023-05-04T03:17:33.613Z,99.90
2023-05-04T03:20:03.710Z,99.90
2023-05-04T03:22:32.071Z,99.90
2023-05-04T03:25:01.972Z,99.90
2023-05-04T03:27:30.092Z,99.90
2023-05-04T03:29:58.277Z,99.90
2023-05-04T03:32:26.508Z,99.90
2023-05-04T03:34:54.626Z,99.90
2023-05-04T03:37:24.942Z,99.90
2023-05-04T03:39:53.064Z,99.90
2023-05-04T03:42:21.320Z,99.90
2023-05-04T03:44:49.813Z,99.90
2023-05-04T03:47:17.836Z,99.90
2023-05-04T03:49:45.883Z,99.90
2023-05-04T03:52:13.882Z,99.90
2023-05-04T03:54:43.364Z,99.90
2023-05-04T03:57:11.417Z,99.90
2023-05-04T03:59:39.846Z,99.90
2023-05-04T04:02:08.041Z,99.90
2023-05-04T04:04:36.233Z,99.90
2023-05-04T04:07:07.206Z,99.90
2023-05-04T04:09:35.281Z,99.90
2023-05-04T04:12:05.129Z,99.90
2023-05-04T04:14:33.343Z,99.90
2023-05-04T04:17:01.350Z,99.90
2023-05-04T04:19:29.368Z,99.90
2023-05-04T04:21:59.009Z,99.90
2023-05-04T04:24:27.109Z,99.90
2023-05-04T04:26:55.154Z,99.90
2023-05-04T04:29:24.910Z,99.90
2023-05-04T04:31:52.999Z,99.90
2023-05-04T04:34:21.066Z,99.90
2023-05-04T04:36:51.224Z,99.90
2023-05-04T04:39:19.311Z,99.90
2023-05-04T04:41:47.585Z,99.90
2023-05-04T04:44:15.748Z,99.90
2023-05-04T04:46:45.833Z,99.90
2023-05-04T04:49:14.249Z,99.90
2023-05-04T04:51:42.221Z,99.90
2023-05-04T04:54:10.299Z,99.90
2023-05-04T04:56:41.521Z,99.90
2023-05-04T04:59:10.485Z,99.90
2023-05-04T05:01:38.830Z,99.90
2023-05-04T05:04:08.256Z,99.90
2023-05-04T05:06:36.706Z,99.90
2023-05-04T05:09:05.442Z,99.90
2023-05-04T05:11:34.070Z,99.90
2023-05-04T05:14:02.089Z,99.90
2023-05-04T05:16:30.216Z,99.90
2023-05-04T05:18:58.789Z,99.90
2023-05-04T05:21:59.555Z,99.90
2023-05-04T05:24:27.849Z,99.90
2023-05-04T05:26:58.017Z,99.90
2023-05-04T05:29:26.754Z,99.90
2023-05-04T05:31:54.874Z,99.90
2023-05-04T05:34:22.994Z,99.90
2023-05-04T05:36:52.415Z,99.90
2023-05-04T05:39:20.493Z,99.90
2023-05-04T05:41:48.655Z,99.90
2023-05-04T05:44:16.703Z,99.90
2023-05-04T05:46:44.773Z,99.90
2023-05-04T05:49:14.354Z,99.90
2023-05-04T05:51:42.826Z,99.90
2023-05-04T05:54:12.456Z,99.90
2023-05-04T05:56:40.446Z,99.90
2023-05-04T05:59:08.452Z,99.90
2023-05-04T06:01:36.732Z,99.90
2023-05-04T06:04:05.015Z,99.90
2023-05-04T06:06:33.378Z,99.90
2023-05-04T06:09:01.442Z,99.90
2023-05-04T06:11:31.921Z,99.90
2023-05-04T06:14:00.168Z,99.90
2023-05-04T06:16:33.046Z,99.90
2023-05-04T06:19:01.110Z,99.90
2023-05-04T06:21:29.200Z,99.90
2023-05-04T06:23:57.336Z,99.90
2023-05-04T06:26:25.526Z,99.90
2023-05-04T06:28:55.032Z,99.90
2023-05-04T06:31:24.247Z,99.90
2023-05-04T06:33:52.427Z,99.90
2023-05-04T06:36:20.456Z,99.90
2023-05-04T06:38:48.450Z,99.90
2023-05-04T06:41:16.812Z,99.90
2023-05-04T06:43:44.958Z,99.90
2023-05-04T06:46:14.497Z,99.90
2023-05-04T06:48:42.627Z,99.90
2023-05-04T06:51:10.685Z,99.90
2023-05-04T06:53:38.984Z,99.90
2023-05-04T06:56:08.193Z,99.90
2023-05-04T06:58:36.696Z,99.90
2023-05-04T07:01:07.463Z,99.90
2023-05-04T07:03:37.057Z,99.90
2023-05-04T07:06:08.866Z,99.90
2023-05-04T07:08:36.937Z,99.90
2023-05-04T07:11:05.984Z,99.90
2023-05-04T07:13:33.962Z,99.90
2023-05-04T07:16:08.012Z,99.90
2023-05-04T07:18:38.928Z,99.90
2023-05-04T07:23:44.744Z,99.90
2023-05-04T07:26:12.763Z,99.90
2023-05-04T07:28:43.700Z,99.90
2023-05-04T07:31:13.148Z,99.90
2023-05-04T07:33:44.497Z,99.90
2023-05-04T07:36:12.575Z,99.90
2023-05-04T07:38:40.630Z,99.90
2023-05-04T07:41:08.624Z,99.90
2023-05-04T07:43:36.733Z,99.90
2023-05-04T07:46:05.013Z,99.90
2023-05-04T07:48:35.393Z,99.90
2023-05-04T07:51:05.005Z,99.90
2023-05-04T07:53:33.220Z,99.90
2023-05-04T07:56:17.248Z,99.90
2023-05-04T07:58:46.792Z,99.90
2023-05-04T08:01:14.867Z,99.90
2023-05-04T08:03:42.899Z,99.90
2023-05-04T08:06:13.057Z,99.90
2023-05-04T08:08:41.233Z,99.90
2023-05-04T08:11:19.955Z,99.90
2023-05-04T08:13:49.845Z,99.90
2023-05-04T08:16:20.814Z,99.90
2023-05-04T08:18:48.921Z,99.90
2023-05-04T08:21:18.363Z,99.90
2023-05-04T08:23:46.308Z,99.90
2023-05-04T08:26:14.462Z,99.90
2023-05-04T08:28:42.888Z,99.90
2023-05-04T08:31:10.880Z,99.90
2023-05-04T08:33:39.544Z,99.90
2023-05-04T08:36:09.312Z,99.90
2023-05-04T08:38:41.758Z,99.90
2023-05-04T08:41:09.687Z,99.90
2023-05-04T08:43:38.302Z,99.90
2023-05-04T08:46:07.758Z,99.90
2023-05-04T08:48:36.986Z,99.90
2023-05-04T08:51:07.914Z,99.90
2023-05-04T08:53:38.950Z,99.90
2023-05-04T08:56:09.435Z,99.90
2023-05-04T08:58:38.473Z,99.90
2023-05-04T09:01:08.657Z,99.90
2023-05-04T09:03:37.382Z,99.90
2023-05-04T09:06:09.546Z,99.90
2023-05-04T09:08:37.696Z,99.90
2023-05-04T09:11:10.479Z,99.90
2023-05-04T09:13:38.771Z,99.90
2023-05-04T09:16:07.799Z,99.90
2023-05-04T09:18:40.055Z,99.90
2023-05-04T09:21:08.775Z,99.90
2023-05-04T09:23:47.335Z,99.90
2023-05-04T09:26:27.147Z,99.90
2023-05-04T09:28:55.315Z,99.90
2023-05-04T09:31:24.239Z,99.90
2023-05-04T09:33:53.653Z,99.90
2023-05-04T09:36:25.099Z,99.90
2023-05-04T09:38:53.083Z,99.90
2023-05-04T09:41:33.041Z,99.90
2023-05-04T09:44:01.172Z,99.90
2023-05-04T09:46:32.065Z,99.90
2023-05-04T09:49:00.333Z,99.90
2023-05-04T09:51:32.766Z,99.90
2023-05-04T09:54:05.642Z,99.90
2023-05-04T09:56:47.537Z,99.90
2023-05-04T09:59:16.826Z,99.90
2023-05-04T10:01:45.540Z,99.90
2023-05-04T10:04:14.086Z,99.90
2023-05-04T10:06:44.836Z,99.90
2023-05-04T10:09:14.207Z,99.90
2023-05-04T10:11:44.093Z,99.90
2023-05-04T10:14:12.665Z,99.90
2023-05-04T10:16:51.643Z,99.90
2023-05-04T10:19:34.531Z,99.90
2023-05-04T10:22:16.990Z,99.90
2023-05-04T10:25:09.066Z,99.90
2023-05-04T10:27:58.335Z,99.90
2023-05-04T10:30:26.437Z,99.90
2023-05-04T10:32:58.865Z,99.90
2023-05-04T10:35:27.654Z,99.90
2023-05-04T10:37:57.048Z,99.90
2023-05-04T10:40:36.711Z,99.90
2023-05-04T10:43:11.141Z,99.90
2023-05-04T10:45:39.744Z,99.90
2023-05-04T10:48:08.910Z,99.90
2023-05-04T10:50:44.581Z,99.90
2023-05-04T10:53:13.201Z,99.90
2023-05-04T10:55:42.981Z,99.90
2023-05-04T10:58:16.589Z,99.90
2023-05-04T11:00:46.197Z,99.90
2023-05-04T11:03:15.324Z,99.90
2023-05-04T11:05:44.620Z,99.90
2023-05-04T11:08:17.462Z,99.90
2023-05-04T11:10:46.784Z,99.90
2023-05-04T11:13:17.056Z,99.90
2023-05-04T11:15:46.448Z,99.90
2023-05-04T11:18:14.621Z,99.90
2023-05-04T11:20:43.683Z,99.90
2023-05-04T11:23:17.727Z,99.80
2023-05-04T11:25:45.983Z,99.90
2023-05-04T11:28:16.074Z,99.90
2023-05-04T11:30:46.122Z,98.70
2023-05-04T11:33:15.752Z,99.80
2023-05-04T11:35:45.503Z,99.90
2023-05-04T11:38:20.048Z,98.90
2023-05-04T11:40:49.778Z,97.90
2023-05-04T11:43:20.208Z,95.40
2023-05-04T11:45:49.766Z,97.70
2023-05-04T11:48:18.889Z,98.20
2023-05-04T11:50:49.109Z,96.80
2023-05-04T11:53:21.534Z,95.80
2023-05-04T11:55:49.896Z,95.00
2023-05-04T11:58:26.110Z,96.00
2023-05-04T12:00:57.530Z,97.50
2023-05-04T12:03:32.606Z,97.70
2023-05-04T12:06:08.152Z,96.30
2023-05-04T12:08:42.313Z,95.30
2023-05-04T12:11:21.802Z,94.10
2023-05-04T12:14:07.026Z,93.50
2023-05-04T12:16:35.435Z,93.50
2023-05-04T12:19:06.080Z,92.90
2023-05-04T12:21:34.511Z,92.90
2023-05-04T12:24:05.414Z,93.40
2023-05-04T12:26:33.529Z,92.50
2023-05-04T12:29:02.892Z,91.10
2023-05-04T12:31:30.914Z,91.00
2023-05-04T12:33:58.931Z,90.40
2023-05-04T12:36:27.082Z,90.10
2023-05-04T12:38:55.131Z,85.20
2023-05-04T12:41:23.323Z,85.10
2023-05-04T12:43:51.428Z,84.60
2023-05-04T12:46:22.624Z,85.20
2023-05-04T12:48:51.080Z,85.40
2023-05-04T12:51:19.184Z,83.90
2023-05-04T12:53:47.238Z,81.60
2023-05-04T12:56:15.334Z,82.60
2023-05-04T12:58:43.219Z,81.70
2023-05-04T13:01:11.565Z,83.30
2023-05-04T13:03:44.222Z,82.50
2023-05-04T13:06:12.745Z,80.00
2023-05-04T13:08:40.823Z,79.90
2023-05-04T13:11:08.799Z,80.60
2023-05-04T13:13:37.304Z,78.30
2023-05-04T13:16:08.595Z,78.00
2023-05-04T13:18:36.797Z,75.70
2023-05-04T13:21:08.754Z,75.10
2023-05-04T13:23:37.452Z,74.60
2023-05-04T13:26:08.713Z,76.10
2023-05-04T13:28:39.074Z,75.30
2023-05-04T13:31:08.688Z,73.90
2023-05-04T13:33:38.673Z,73.30
2023-05-04T13:36:08.657Z,74.70
2023-05-04T13:38:36.899Z,75.30
2023-05-04T13:41:04.994Z,75.50
2023-05-04T13:43:33.152Z,75.40
2023-05-04T13:46:06.268Z,76.60
2023-05-04T13:48:34.997Z,74.10
2023-05-04T13:51:06.999Z,75.20
2023-05-04T13:53:36.574Z,72.10
2023-05-04T13:56:06.919Z,71.80
2023-05-04T13:58:34.992Z,73.40
2023-05-04T14:01:05.978Z,71.00
2023-05-04T14:03:34.222Z,70.30
2023-05-04T14:06:07.183Z,71.40
2023-05-04T14:08:36.667Z,69.20
2023-05-04T14:11:05.047Z,68.50
2023-05-04T14:13:35.275Z,67.70
2023-05-04T14:16:05.652Z,67.50
2023-05-04T14:18:35.417Z,68.10
2023-05-04T14:21:03.967Z,68.10
2023-05-04T14:23:34.019Z,67.40
2023-05-04T14:26:05.087Z,68.90
2023-05-04T14:28:33.422Z,67.70
2023-05-04T14:31:08.636Z,66.70
2023-05-04T14:33:36.993Z,66.10
2023-05-04T14:36:09.122Z,67.20
2023-05-04T14:38:37.341Z,65.50
2023-05-04T14:41:08.520Z,65.40
2023-05-04T14:43:36.876Z,65.80
2023-05-04T14:46:05.579Z,65.60
2023-05-04T14:48:33.782Z,66.00
2023-05-04T14:51:02.247Z,65.40
2023-05-04T14:53:34.253Z,65.10
2023-05-04T14:56:05.063Z,66.00
2023-05-04T14:58:34.580Z,64.30
2023-05-04T15:01:02.981Z,65.30
2023-05-04T15:03:31.412Z,63.70
2023-05-04T15:05:59.492Z,64.40
2023-05-04T15:08:27.597Z,64.90
2023-05-04T15:10:59.009Z,64.00
2023-05-04T15:13:27.232Z,64.00
2023-05-04T15:15:56.858Z,64.10
2023-05-04T15:18:26.186Z,64.40
2023-05-04T15:20:54.148Z,64.40
2023-05-04T15:23:23.004Z,63.90
2023-05-04T15:25:51.345Z,63.60
2023-05-04T15:28:22.735Z,62.90
2023-05-04T15:30:50.841Z,63.40
2023-05-04T15:33:20.423Z,63.10
2023-05-04T15:35:48.492Z,62.40
2023-05-04T15:38:16.509Z,62.90
2023-05-04T15:40:44.591Z,63.40
2023-05-04T15:43:12.687Z,63.90
2023-05-04T15:45:40.568Z,62.10
2023-05-04T15:48:08.698Z,62.00
2023-05-04T15:50:38.215Z,62.10
2023-05-04T15:53:12.641Z,61.00
2023-05-04T15:55:41.319Z,60.40
2023-05-04T15:58:09.452Z,61.00
2023-05-04T16:00:37.664Z,60.60
2023-05-04T16:03:07.111Z,61.70
2023-05-04T16:05:35.328Z,62.30
2023-05-04T16:08:05.025Z,60.90
2023-05-04T16:10:33.326Z,61.10
2023-05-04T16:13:04.074Z,60.80
2023-05-04T16:15:32.642Z,59.30
2023-05-04T16:18:00.964Z,59.80
2023-05-04T16:20:30.284Z,59.50
2023-05-04T16:22:58.407Z,59.10
2023-05-04T16:25:28.113Z,58.40
2023-05-04T16:27:56.337Z,59.60
2023-05-04T16:30:30.018Z,59.20
2023-05-04T16:32:58.005Z,59.10
2023-05-04T16:35:26.454Z,58.10
2023-05-04T16:37:55.318Z,58.40
2023-05-04T16:40:24.152Z,58.20
2023-05-04T16:42:53.691Z,58.50
2023-05-04T16:45:24.793Z,57.50
2023-05-04T16:47:53.448Z,58.90
2023-05-04T16:50:21.817Z,59.10
2023-05-04T16:52:49.848Z,59.00
2023-05-04T16:55:17.907Z,59.60
2023-05-04T16:57:46.225Z,60.20
2023-05-04T17:00:17.000Z,59.50
2023-05-04T17:02:45.518Z,60.60
2023-05-04T17:05:13.613Z,60.70
2023-05-04T17:07:43.308Z,61.50
2023-05-04T17:10:12.660Z,61.30
2023-05-04T17:12:40.799Z,62.80
2023-05-04T17:15:10.531Z,62.80
2023-05-04T17:17:40.344Z,63.10
2023-05-04T17:20:14.709Z,63.60
2023-05-04T17:22:43.237Z,63.60
2023-05-04T17:25:12.216Z,64.40
2023-05-04T17:27:41.118Z,65.10
2023-05-04T17:30:10.609Z,65.10
2023-05-04T17:32:40.504Z,64.70
2023-05-04T17:35:20.940Z,65.20
2023-05-04T17:37:51.951Z,66.60
2023-05-04T17:40:20.357Z,68.70
2023-05-04T17:42:48.440Z,69.40
2023-05-04T17:45:18.851Z,70.20
2023-05-04T17:47:51.628Z,71.00
2023-05-04T17:50:20.385Z,71.80
2023-05-04T17:52:55.166Z,72.00
2023-05-04T17:55:25.037Z,72.80
2023-05-04T17:57:56.059Z,74.00
2023-05-04T18:00:25.043Z,74.60
2023-05-04T18:02:54.630Z,75.60
2023-05-04T18:05:22.697Z,75.50
2023-05-04T18:07:51.032Z,75.60
2023-05-04T18:10:19.307Z,75.80
2023-05-04T18:12:48.114Z,75.50
2023-05-04T18:15:17.213Z,75.50
2023-05-04T18:17:48.665Z,76.00
2023-05-04T18:20:19.410Z,76.50
2023-05-04T18:22:47.641Z,77.40
2023-05-04T18:25:16.155Z,77.30
2023-05-04T18:27:45.241Z,77.30
2023-05-04T18:30:13.631Z,77.70
2023-05-04T18:32:41.658Z,77.80
2023-05-04T18:35:10.467Z,77.90
2023-05-04T18:37:39.971Z,77.70
2023-05-04T18:40:11.127Z,78.20
2023-05-04T18:42:39.271Z,78.40
2023-05-04T18:45:08.514Z,78.30
2023-05-04T18:47:36.824Z,78.40
2023-05-04T18:50:09.098Z,78.30
2023-05-04T18:52:37.445Z,78.90
2023-05-04T18:55:07.978Z,78.70
2023-05-04T18:57:36.073Z,79.20
2023-05-04T19:00:07.269Z,79.30
2023-05-04T19:02:35.779Z,79.10
2023-05-04T19:05:03.881Z,79.60
2023-05-04T19:07:36.781Z,80.20
2023-05-04T19:10:09.085Z,80.40
2023-05-04T19:12:37.578Z,80.50
2023-05-04T19:15:08.820Z,80.80
2023-05-04T19:17:37.107Z,81.20
2023-05-04T19:20:09.092Z,81.50
2023-05-04T19:22:37.297Z,82.00
2023-05-04T19:25:07.901Z,82.30
2023-05-04T19:27:35.940Z,82.70
2023-05-04T19:30:04.608Z,82.80
2023-05-04T19:32:32.972Z,83.30
2023-05-04T19:35:01.280Z,83.50
2023-05-04T19:37:29.355Z,83.80
2023-05-04T19:39:57.907Z,84.20
2023-05-04T19:42:28.287Z,84.70
2023-05-04T19:44:56.258Z,84.70
2023-05-04T19:47:24.343Z,85.10
2023-05-04T19:49:52.683Z,85.50
2023-05-04T19:52:20.609Z,85.90
2023-05-04T19:54:53.558Z,86.30
2023-05-04T19:57:21.656Z,87.30
2023-05-04T19:59:51.076Z,88.10
2023-05-04T20:02:19.229Z,88.80
2023-05-04T20:04:47.290Z,89.20
2023-05-04T20:07:15.278Z,89.50
2023-05-04T20:09:43.222Z,89.80
2023-05-04T20:12:11.911Z,90.00
2023-05-04T20:14:41.063Z,90.20
2023-05-04T20:17:10.665Z,90.60
2023-05-04T20:19:42.917Z,90.90
2023-05-04T20:22:11.141Z,91.10
2023-05-04T20:24:39.154Z,91.30
2023-05-04T20:27:08.459Z,91.40
2023-05-04T20:29:36.901Z,91.40
2023-05-04T20:32:05.617Z,91.40
2023-05-04T20:34:36.429Z,91.30
2023-05-04T20:37:06.705Z,91.30
2023-05-04T20:39:34.782Z,91.00
2023-05-04T20:42:14.463Z,91.00
2023-05-04T20:44:42.410Z,91.50
2023-05-04T20:47:10.368Z,91.70
2023-05-04T20:49:41.736Z,91.90
2023-05-04T20:52:11.418Z,92.20
2023-05-04T20:54:39.532Z,92.50
2023-05-04T20:57:07.732Z,92.70
2023-05-04T20:59:35.768Z,93.00
2023-05-04T21:02:03.757Z,93.20
2023-05-04T21:04:31.810Z,93.50
2023-05-04T21:07:01.326Z,93.70
2023-05-04T21:09:29.297Z,94.00
2023-05-04T21:11:58.359Z,94.30
2023-05-04T21:14:26.323Z,94.50
2023-05-04T21:16:55.008Z,94.60
2023-05-04T21:19:23.031Z,94.90
2023-05-04T21:21:51.325Z,95.10
2023-05-04T21:24:20.697Z,95.50
2023-05-04T21:26:49.668Z,95.90
2023-05-04T21:29:18.017Z,96.10
2023-05-04T21:31:46.877Z,96.40
2023-05-04T21:34:15.278Z,96.70
2023-05-04T21:36:44.580Z,96.90
2023-05-04T21:39:12.650Z,97.50
2023-05-04T21:41:42.137Z,97.80
2023-05-04T21:44:10.101Z,98.20
2023-05-04T21:46:38.174Z,98.40
2023-05-04T21:49:09.015Z,99.10
2023-05-04T21:51:37.022Z,99.70
2023-05-04T21:54:06.542Z,99.90
2023-05-04T21:56:34.903Z,99.90
2023-05-04T21:59:06.905Z,99.90
2023-05-04T22:01:34.987Z,99.90
2023-05-04T22:04:05.656Z,99.90
2023-05-04T22:06:33.700Z,99.90
2023-05-04T22:09:01.906Z,99.90
2023-05-04T22:11:30.085Z,99.90
2023-05-04T22:13:58.122Z,99.90
2023-05-04T22:16:27.554Z,99.90
2023-05-04T22:18:55.586Z,99.90
2023-05-04T22:21:23.675Z,99.90
2023-05-04T22:23:51.829Z,99.90
2023-05-04T22:26:21.076Z,99.90
2023-05-04T22:28:49.208Z,99.90
2023-05-04T22:31:17.370Z,99.90
2023-05-04T22:33:46.770Z,99.90
2023-05-04T22:36:14.811Z,99.90
2023-05-04T22:38:43.145Z,99.90
2023-05-04T22:41:11.211Z,99.90
2023-05-04T22:43:39.209Z,99.90
2023-05-04T22:46:07.523Z,99.90
2023-05-04T22:48:35.544Z,99.90
2023-05-04T22:51:04.969Z,99.90
2023-05-04T22:53:32.940Z,99.90
2023-05-04T22:56:00.977Z,99.90
2023-05-04T22:58:29.013Z,99.90
2023-05-04T23:00:59.168Z,99.90
2023-05-04T23:03:27.262Z,99.90
2023-05-04T23:05:55.323Z,99.90
2023-05-04T23:08:26.289Z,99.90
2023-05-04T23:10:54.715Z,99.90
2023-05-04T23:13:23.027Z,99.90
2023-05-04T23:15:51.079Z,99.90
2023-05-04T23:18:19.191Z,99.90
2023-05-04T23:20:47.241Z,99.90
2023-05-04T23:23:15.301Z,99.90
2023-05-04T23:25:46.158Z,99.90
2023-05-04T23:28:14.214Z,99.90
2023-05-04T23:30:42.373Z,99.90
2023-05-04T23:33:10.442Z,99.90
2023-05-04T23:35:38.414Z,99.90
2023-05-04T23:38:06.534Z,99.90
2023-05-04T23:40:34.883Z,99.90
2023-05-04T23:43:06.326Z,99.90
2023-05-04T23:45:34.373Z,99.90
2023-05-04T23:48:08.649Z,99.90
2023-05-04T23:50:36.708Z,99.90
2023-05-04T23:53:04.999Z,99.90
2023-05-04T23:55:33.240Z,99.90
2023-05-04T23:58:01.385Z,99.90
